Time;durP1;ratioP1;P1;durP2;ratioP2;P2;SDS_P1;SDS_P2;PMS_P1;PMS_P2;Temp;Humidity;BMP_temperature;BMP_pressure;BME280_temperature;BME280_humidity;BME280_pressure;Samples;Min_cycle;Max_cycle;Signal;HPM_P1;HPM_P2
2022/09/05 00:00:13;;;;;;;0.5;0.5;;;;;;;20.9;97.3;101620;;;;
2022/09/05 00:01:04;;;;;;;0.5;0.5;;;;;;;20.9;97.3;101620;;;;
2022/09/05 00:02:00;;;;;;;0.5;0.5;;;;;;;20.9;99.1;101610;;;;
2022/09/05 00:03:10;;;;;;;0.5;0.5;;;;;;;20.9;99.1;101610;;;;
2022/09/05 00:04:20;;;;;;;0.5;0.5;;;;;;;20.9;97.1;101610;;;;
2022/09/05 00:05:10;;;;;;;0.5;0.5;;;;;;;20.9;97.1;101610;;;;
2022/09/05 00:06:05;;;;;;;0.5;0.5;;;;;;;20.9;96.7;101610;;;;
2022/09/05 00:07:01;;;;;;;0.5;0.5;;;;;;;20.9;96.7;101610;;;;
2022/09/05 00:08:03;;;;;;;0.5;0.5;;;;;;;20.8;97.8;101610;;;;
2022/09/05 00:09:08;;;;;;;0.3;0.3;;;;;;;20.8;97.8;101610;;;;
2022/09/05 00:10:09;;;;;;;0.3;0.3;;;;;;;20.9;96.1;101610;;;;
2022/09/05 00:11:20;;;;;;;0.3;0.3;;;;;;;20.9;96.1;101610;;;;
2022/09/05 00:12:01;;;;;;;0.3;0.3;;;;;;;20.8;96.7;101610;;;;
2022/09/05 00:13:08;;;;;;;0.3;0.3;;;;;;;20.8;96.7;101610;;;;
2022/09/05 00:14:10;;;;;;;0.3;0.3;;;;;;;20.8;96.5;101610;;;;
2022/09/05 00:15:10;;;;;;;0.3;0.3;;;;;;;20.8;96.5;101610;;;;
2022/09/05 00:16:10;;;;;;;0.3;0.3;;;;;;;20.6;100.0;101610;;;;
2022/09/05 00:17:10;;;;;;;0.3;0.3;;;;;;;20.6;100.0;101610;;;;
2022/09/05 00:18:19;;;;;;;0.3;0.3;;;;;;;20.6;99.6;101610;;;;
2022/09/05 00:19:17;;;;;;;0.3;0.3;;;;;;;20.6;99.6;101610;;;;
2022/09/05 00:20:16;;;;;;;0.3;0.3;;;;;;;20.7;98.3;101610;;;;
2022/09/05 00:21:19;;;;;;;0.3;0.3;;;;;;;20.7;98.3;101610;;;;
2022/09/05 00:22:20;;;;;;;0.3;0.3;;;;;;;20.7;100.0;101610;;;;
2022/09/05 00:23:20;;;;;;;0.3;0.3;;;;;;;20.7;100.0;101610;;;;
2022/09/05 00:24:20;;;;;;;0.3;0.3;;;;;;;20.6;99.4;101610;;;;
2022/09/05 00:25:20;;;;;;;0.3;0.3;;;;;;;20.6;99.4;101610;;;;
2022/09/05 00:26:09;;;;;;;0.3;0.3;;;;;;;20.6;99.5;101600;;;;
2022/09/05 00:27:08;;;;;;;0.3;0.3;;;;;;;20.6;99.5;101600;;;;
2022/09/05 00:28:02;;;;;;;0.3;0.3;;;;;;;20.6;98.1;101600;;;;
2022/09/05 00:29:11;;;;;;;0.2;0.2;;;;;;;20.6;98.1;101600;;;;
2022/09/05 00:30:20;;;;;;;0.2;0.2;;;;;;;20.6;97.5;101600;;;;
2022/09/05 00:31:13;;;;;;;0.2;0.2;;;;;;;20.6;97.5;101600;;;;
2022/09/05 00:32:05;;;;;;;0.2;0.2;;;;;;;20.6;98.1;101600;;;;
2022/09/05 00:33:17;;;;;;;0.2;0.2;;;;;;;20.6;98.1;101600;;;;
2022/09/05 00:34:06;;;;;;;0.2;0.2;;;;;;;20.6;98.0;101600;;;;
2022/09/05 00:35:08;;;;;;;0.2;0.2;;;;;;;20.6;98.0;101600;;;;
2022/09/05 00:36:10;;;;;;;0.2;0.2;;;;;;;20.5;97.6;101600;;;;
2022/09/05 00:37:00;;;;;;;0.2;0.2;;;;;;;20.5;97.6;101600;;;;
2022/09/05 00:38:10;;;;;;;0.2;0.2;;;;;;;20.5;100.0;101590;;;;
2022/09/05 00:39:02;;;;;;;0.2;0.2;;;;;;;20.5;100.0;101590;;;;
2022/09/05 00:40:19;;;;;;;0.2;0.2;;;;;;;20.5;98.7;101600;;;;
2022/09/05 00:41:03;;;;;;;0.2;0.2;;;;;;;20.5;98.7;101600;;;;
2022/09/05 00:42:03;;;;;;;0.2;0.2;;;;;;;20.5;99.4;101590;;;;
2022/09/05 00:43:03;;;;;;;0.2;0.2;;;;;;;20.5;99.4;101590;;;;
2022/09/05 00:44:01;;;;;;;0.2;0.2;;;;;;;20.4;99.7;101590;;;;
2022/09/05 00:45:02;;;;;;;0.2;0.2;;;;;;;20.4;99.7;101590;;;;
2022/09/05 00:46:02;;;;;;;0.2;0.2;;;;;;;20.4;99.9;101590;;;;
2022/09/05 00:47:03;;;;;;;0.2;0.2;;;;;;;20.4;99.9;101590;;;;
2022/09/05 00:48:04;;;;;;;0.2;0.2;;;;;;;20.4;98.3;101590;;;;
2022/09/05 00:49:10;;;;;;;0.4;0.4;;;;;;;20.4;98.3;101590;;;;
2022/09/05 00:50:03;;;;;;;0.4;0.4;;;;;;;20.4;99.1;101590;;;;
2022/09/05 00:51:03;;;;;;;0.4;0.4;;;;;;;20.4;99.1;101590;;;;
2022/09/05 00:52:06;;;;;;;0.4;0.4;;;;;;;20.3;99.6;101590;;;;
2022/09/05 00:53:07;;;;;;;0.4;0.4;;;;;;;20.3;99.6;101590;;;;
2022/09/05 00:54:01;;;;;;;0.4;0.4;;;;;;;20.3;99.3;101590;;;;
2022/09/05 00:55:09;;;;;;;0.4;0.4;;;;;;;20.3;99.3;101590;;;;
2022/09/05 00:56:10;;;;;;;0.4;0.4;;;;;;;20.3;100.0;101590;;;;
2022/09/05 00:57:11;;;;;;;0.4;0.4;;;;;;;20.3;100.0;101590;;;;
2022/09/05 00:58:10;;;;;;;0.4;0.4;;;;;;;20.2;100.0;101590;;;;
2022/09/05 00:59:10;;;;;;;0.4;0.4;;;;;;;20.2;100.0;101590;;;;
2022/09/05 01:00:17;;;;;;;0.4;0.4;;;;;;;20.2;100.0;101590;;;;
2022/09/05 01:01:13;;;;;;;0.4;0.4;;;;;;;20.2;100.0;101590;;;;
2022/09/05 01:02:05;;;;;;;0.4;0.4;;;;;;;20.2;100.0;101590;;;;
2022/09/05 01:03:10;;;;;;;0.4;0.4;;;;;;;20.2;100.0;101590;;;;
2022/09/05 01:04:05;;;;;;;0.4;0.4;;;;;;;20.2;99.8;101600;;;;
2022/09/05 01:05:03;;;;;;;0.4;0.4;;;;;;;20.2;99.8;101600;;;;
2022/09/05 01:06:00;;;;;;;0.4;0.4;;;;;;;20.2;99.3;101600;;;;
2022/09/05 01:07:10;;;;;;;0.4;0.4;;;;;;;20.2;99.3;101600;;;;
2022/09/05 01:08:10;;;;;;;0.4;0.4;;;;;;;20.2;99.9;101600;;;;
2022/09/05 01:09:08;;;;;;;0.6;0.6;;;;;;;20.2;99.9;101600;;;;
2022/09/05 01:10:06;;;;;;;0.6;0.6;;;;;;;20.2;99.2;101600;;;;
2022/09/05 01:11:11;;;;;;;0.6;0.6;;;;;;;20.2;99.2;101600;;;;
2022/09/05 01:12:10;;;;;;;0.6;0.6;;;;;;;20.1;100.0;101600;;;;
2022/09/05 01:13:09;;;;;;;0.6;0.6;;;;;;;20.1;100.0;101600;;;;
2022/09/05 01:14:02;;;;;;;0.6;0.6;;;;;;;20.0;100.0;101600;;;;
2022/09/05 01:15:09;;;;;;;0.6;0.6;;;;;;;20.0;100.0;101600;;;;
2022/09/05 01:16:08;;;;;;;0.6;0.6;;;;;;;19.9;100.0;101600;;;;
2022/09/05 01:17:03;;;;;;;0.6;0.6;;;;;;;19.9;100.0;101600;;;;
2022/09/05 01:18:01;;;;;;;0.6;0.6;;;;;;;20.1;100.0;101600;;;;
2022/09/05 01:19:16;;;;;;;0.6;0.6;;;;;;;20.1;100.0;101600;;;;
2022/09/05 01:20:11;;;;;;;0.6;0.6;;;;;;;20.1;100.0;101600;;;;
2022/09/05 01:21:08;;;;;;;0.6;0.6;;;;;;;20.1;100.0;101600;;;;
2022/09/05 01:22:10;;;;;;;0.6;0.6;;;;;;;20.1;100.0;101600;;;;
2022/09/05 01:23:08;;;;;;;0.6;0.6;;;;;;;20.1;100.0;101600;;;;
2022/09/05 01:24:08;;;;;;;0.6;0.6;;;;;;;20.1;100.0;101600;;;;
2022/09/05 01:25:00;;;;;;;0.6;0.6;;;;;;;20.1;100.0;101600;;;;
2022/09/05 01:26:03;;;;;;;0.6;0.6;;;;;;;20.0;100.0;101600;;;;
2022/09/05 01:27:12;;;;;;;0.6;0.6;;;;;;;20.0;100.0;101600;;;;
2022/09/05 01:28:14;;;;;;;0.6;0.6;;;;;;;20.0;100.0;101600;;;;
2022/09/05 01:29:14;;;;;;;0.9;0.4;;;;;;;20.0;100.0;101600;;;;
2022/09/05 01:30:06;;;;;;;0.9;0.4;;;;;;;20.0;99.9;101600;;;;
2022/09/05 01:31:10;;;;;;;0.9;0.4;;;;;;;20.0;99.9;101600;;;;
2022/09/05 01:32:03;;;;;;;0.9;0.4;;;;;;;19.8;100.0;101600;;;;
2022/09/05 01:33:08;;;;;;;0.9;0.4;;;;;;;19.8;100.0;101600;;;;
2022/09/05 01:34:11;;;;;;;0.9;0.4;;;;;;;19.9;100.0;101600;;;;
2022/09/05 01:35:10;;;;;;;0.9;0.4;;;;;;;19.9;100.0;101600;;;;
2022/09/05 01:36:04;;;;;;;0.9;0.4;;;;;;;19.7;100.0;101600;;;;
2022/09/05 01:37:21;;;;;;;0.9;0.4;;;;;;;19.7;100.0;101600;;;;
2022/09/05 01:38:08;;;;;;;0.9;0.4;;;;;;;19.7;100.0;101600;;;;
2022/09/05 01:39:13;;;;;;;0.9;0.4;;;;;;;19.7;100.0;101600;;;;
2022/09/05 01:40:16;;;;;;;0.9;0.4;;;;;;;19.8;100.0;101600;;;;
2022/09/05 01:41:20;;;;;;;0.9;0.4;;;;;;;19.8;100.0;101600;;;;
2022/09/05 01:42:03;;;;;;;0.9;0.4;;;;;;;19.8;100.0;101600;;;;
2022/09/05 01:43:10;;;;;;;0.9;0.4;;;;;;;19.8;100.0;101600;;;;
2022/09/05 01:44:10;;;;;;;0.9;0.4;;;;;;;19.8;100.0;101590;;;;
2022/09/05 01:45:05;;;;;;;0.9;0.4;;;;;;;19.8;100.0;101590;;;;
2022/09/05 01:46:11;;;;;;;0.9;0.4;;;;;;;19.8;100.0;101600;;;;
2022/09/05 01:47:06;;;;;;;0.9;0.4;;;;;;;19.8;100.0;101600;;;;
2022/09/05 01:48:04;;;;;;;0.9;0.4;;;;;;;19.7;100.0;101590;;;;
2022/09/05 01:49:07;;;;;;;0.3;0.3;;;;;;;19.7;100.0;101590;;;;
2022/09/05 01:50:10;;;;;;;0.3;0.3;;;;;;;19.7;100.0;101590;;;;
2022/09/05 01:51:02;;;;;;;0.3;0.3;;;;;;;19.7;100.0;101590;;;;
2022/09/05 01:52:10;;;;;;;0.3;0.3;;;;;;;19.6;100.0;101590;;;;
2022/09/05 01:53:06;;;;;;;0.3;0.3;;;;;;;19.6;100.0;101590;;;;
2022/09/05 01:54:20;;;;;;;0.3;0.3;;;;;;;19.4;100.0;101590;;;;
2022/09/05 01:55:10;;;;;;;0.3;0.3;;;;;;;19.4;100.0;101590;;;;
2022/09/05 01:56:12;;;;;;;0.3;0.3;;;;;;;19.5;100.0;101590;;;;
2022/09/05 01:57:01;;;;;;;0.3;0.3;;;;;;;19.5;100.0;101590;;;;
2022/09/05 01:58:07;;;;;;;0.3;0.3;;;;;;;19.7;100.0;101590;;;;
2022/09/05 01:59:00;;;;;;;0.3;0.3;;;;;;;19.7;100.0;101590;;;;
2022/09/05 02:00:06;;;;;;;0.3;0.3;;;;;;;19.5;100.0;101590;;;;
2022/09/05 02:01:10;;;;;;;0.3;0.3;;;;;;;19.5;100.0;101590;;;;
2022/09/05 02:02:10;;;;;;;0.3;0.3;;;;;;;19.6;100.0;101600;;;;
2022/09/05 02:03:01;;;;;;;0.3;0.3;;;;;;;19.6;100.0;101600;;;;
2022/09/05 02:04:10;;;;;;;0.3;0.3;;;;;;;19.6;100.0;101590;;;;
2022/09/05 02:05:07;;;;;;;0.3;0.3;;;;;;;19.6;100.0;101590;;;;
2022/09/05 02:06:08;;;;;;;0.3;0.3;;;;;;;19.5;100.0;101600;;;;
2022/09/05 02:07:17;;;;;;;0.3;0.3;;;;;;;19.5;100.0;101600;;;;
2022/09/05 02:08:10;;;;;;;0.3;0.3;;;;;;;19.5;100.0;101600;;;;
2022/09/05 02:09:00;;;;;;;0.3;0.3;;;;;;;19.5;100.0;101600;;;;
2022/09/05 02:10:07;;;;;;;0.3;0.3;;;;;;;19.6;100.0;101590;;;;
2022/09/05 02:11:05;;;;;;;0.3;0.3;;;;;;;19.6;100.0;101590;;;;
2022/09/05 02:12:05;;;;;;;0.3;0.3;;;;;;;19.3;100.0;101600;;;;
2022/09/05 02:13:10;;;;;;;0.3;0.3;;;;;;;19.3;100.0;101600;;;;
2022/09/05 02:14:07;;;;;;;0.3;0.3;;;;;;;19.2;100.0;101590;;;;
2022/09/05 02:15:03;;;;;;;0.3;0.3;;;;;;;19.2;100.0;101590;;;;
2022/09/05 02:16:10;;;;;;;0.3;0.3;;;;;;;19.3;100.0;101590;;;;
2022/09/05 02:17:20;;;;;;;0.3;0.3;;;;;;;19.3;100.0;101590;;;;
2022/09/05 02:18:01;;;;;;;0.3;0.3;;;;;;;19.3;100.0;101590;;;;
2022/09/05 02:19:07;;;;;;;0.3;0.3;;;;;;;19.3;100.0;101590;;;;
2022/09/05 02:20:07;;;;;;;0.3;0.3;;;;;;;19.5;100.0;101590;;;;
2022/09/05 02:21:01;;;;;;;0.3;0.3;;;;;;;19.5;100.0;101590;;;;
2022/09/05 02:22:06;;;;;;;0.3;0.3;;;;;;;19.4;100.0;101590;;;;
2022/09/05 02:23:00;;;;;;;0.3;0.3;;;;;;;19.4;100.0;101590;;;;
2022/09/05 02:24:01;;;;;;;0.3;0.3;;;;;;;19.5;100.0;101600;;;;
2022/09/05 02:25:13;;;;;;;0.3;0.3;;;;;;;19.5;100.0;101600;;;;
2022/09/05 02:26:03;;;;;;;0.3;0.3;;;;;;;19.4;100.0;101590;;;;
2022/09/05 02:27:06;;;;;;;0.3;0.3;;;;;;;19.4;100.0;101590;;;;
2022/09/05 02:28:06;;;;;;;0.3;0.3;;;;;;;19.4;100.0;101600;;;;
2022/09/05 02:29:04;;;;;;;0.3;0.3;;;;;;;19.4;100.0;101600;;;;
2022/09/05 02:30:07;;;;;;;0.3;0.3;;;;;;;19.4;100.0;101600;;;;
2022/09/05 02:31:13;;;;;;;0.3;0.3;;;;;;;19.4;100.0;101600;;;;
2022/09/05 02:32:09;;;;;;;0.3;0.3;;;;;;;19.4;100.0;101600;;;;
2022/09/05 02:33:03;;;;;;;0.3;0.3;;;;;;;19.4;100.0;101600;;;;
2022/09/05 02:34:07;;;;;;;0.3;0.3;;;;;;;19.3;100.0;101600;;;;
2022/09/05 02:35:06;;;;;;;0.3;0.3;;;;;;;19.3;100.0;101600;;;;
2022/09/05 02:36:10;;;;;;;0.3;0.3;;;;;;;19.1;100.0;101600;;;;
2022/09/05 02:37:10;;;;;;;0.3;0.3;;;;;;;19.1;100.0;101600;;;;
2022/09/05 02:38:15;;;;;;;0.3;0.3;;;;;;;19.2;100.0;101600;;;;
2022/09/05 02:39:15;;;;;;;0.3;0.3;;;;;;;19.2;100.0;101600;;;;
2022/09/05 02:40:14;;;;;;;0.3;0.3;;;;;;;19.1;100.0;101600;;;;
2022/09/05 02:41:16;;;;;;;0.3;0.3;;;;;;;19.1;100.0;101600;;;;
2022/09/05 02:42:17;;;;;;;0.3;0.3;;;;;;;19.2;100.0;101600;;;;
2022/09/05 02:43:15;;;;;;;0.3;0.3;;;;;;;19.2;100.0;101600;;;;
2022/09/05 02:44:13;;;;;;;0.3;0.3;;;;;;;19.3;100.0;101600;;;;
2022/09/05 02:45:16;;;;;;;0.3;0.3;;;;;;;19.3;100.0;101600;;;;
2022/09/05 02:46:10;;;;;;;0.3;0.3;;;;;;;19.3;100.0;101600;;;;
2022/09/05 02:47:00;;;;;;;0.3;0.3;;;;;;;19.3;100.0;101600;;;;
2022/09/05 02:48:13;;;;;;;0.3;0.3;;;;;;;19.2;100.0;101600;;;;
2022/09/05 02:49:20;;;;;;;0.5;0.5;;;;;;;19.2;100.0;101600;;;;
2022/09/05 02:50:15;;;;;;;0.5;0.5;;;;;;;19.2;100.0;101600;;;;
2022/09/05 02:51:20;;;;;;;0.5;0.5;;;;;;;19.2;100.0;101600;;;;
2022/09/05 02:52:12;;;;;;;0.5;0.5;;;;;;;19.2;100.0;101600;;;;
2022/09/05 02:53:12;;;;;;;0.5;0.5;;;;;;;19.2;100.0;101600;;;;
2022/09/05 02:54:12;;;;;;;0.5;0.5;;;;;;;19.2;100.0;101600;;;;
2022/09/05 02:55:10;;;;;;;0.5;0.5;;;;;;;19.2;100.0;101600;;;;
2022/09/05 02:56:20;;;;;;;0.5;0.5;;;;;;;19.2;100.0;101600;;;;
2022/09/05 02:57:20;;;;;;;0.5;0.5;;;;;;;19.2;100.0;101600;;;;
2022/09/05 02:58:10;;;;;;;0.5;0.5;;;;;;;19.1;100.0;101600;;;;
2022/09/05 02:59:10;;;;;;;0.5;0.5;;;;;;;19.1;100.0;101600;;;;
2022/09/05 03:00:04;;;;;;;0.5;0.5;;;;;;;19.1;100.0;101600;;;;
2022/09/05 03:01:07;;;;;;;0.5;0.5;;;;;;;19.1;100.0;101600;;;;
2022/09/05 03:02:14;;;;;;;0.5;0.5;;;;;;;19.1;100.0;101600;;;;
2022/09/05 03:03:03;;;;;;;0.5;0.5;;;;;;;19.1;100.0;101600;;;;
2022/09/05 03:04:00;;;;;;;0.5;0.5;;;;;;;19.1;100.0;101600;;;;
2022/09/05 03:05:08;;;;;;;0.5;0.5;;;;;;;19.1;100.0;101600;;;;
2022/09/05 03:06:04;;;;;;;0.5;0.5;;;;;;;19.1;100.0;101600;;;;
2022/09/05 03:07:10;;;;;;;0.5;0.5;;;;;;;19.1;100.0;101600;;;;
2022/09/05 03:08:01;;;;;;;0.5;0.5;;;;;;;19.0;100.0;101600;;;;
2022/09/05 03:09:17;;;;;;;0.3;0.3;;;;;;;19.0;100.0;101600;;;;
2022/09/05 03:10:10;;;;;;;0.3;0.3;;;;;;;19.1;100.0;101600;;;;
2022/09/05 03:11:10;;;;;;;0.3;0.3;;;;;;;19.1;100.0;101600;;;;
2022/09/05 03:12:10;;;;;;;0.3;0.3;;;;;;;19.1;100.0;101600;;;;
2022/09/05 03:13:00;;;;;;;0.3;0.3;;;;;;;19.1;100.0;101600;;;;
2022/09/05 03:14:10;;;;;;;0.3;0.3;;;;;;;19.1;100.0;101600;;;;
2022/09/05 03:15:20;;;;;;;0.3;0.3;;;;;;;19.1;100.0;101600;;;;
2022/09/05 03:16:04;;;;;;;0.3;0.3;;;;;;;19.1;100.0;101600;;;;
2022/09/05 03:17:10;;;;;;;0.3;0.3;;;;;;;19.1;100.0;101600;;;;
2022/09/05 03:18:20;;;;;;;0.3;0.3;;;;;;;19.0;100.0;101600;;;;
2022/09/05 03:19:10;;;;;;;0.3;0.3;;;;;;;19.0;100.0;101600;;;;
2022/09/05 03:20:10;;;;;;;0.3;0.3;;;;;;;19.0;100.0;101600;;;;
2022/09/05 03:21:13;;;;;;;0.3;0.3;;;;;;;19.0;100.0;101600;;;;
2022/09/05 03:22:10;;;;;;;0.3;0.3;;;;;;;18.9;100.0;101600;;;;
2022/09/05 03:23:10;;;;;;;0.3;0.3;;;;;;;18.9;100.0;101600;;;;
2022/09/05 03:24:00;;;;;;;0.3;0.3;;;;;;;18.9;100.0;101600;;;;
2022/09/05 03:25:10;;;;;;;0.3;0.3;;;;;;;18.9;100.0;101600;;;;
2022/09/05 03:26:01;;;;;;;0.3;0.3;;;;;;;18.9;100.0;101610;;;;
2022/09/05 03:27:00;;;;;;;0.3;0.3;;;;;;;18.9;100.0;101610;;;;
2022/09/05 03:28:02;;;;;;;0.3;0.3;;;;;;;18.9;100.0;101600;;;;
2022/09/05 03:29:10;;;;;;;0.2;0.2;;;;;;;18.9;100.0;101600;;;;
2022/09/05 03:30:07;;;;;;;0.2;0.2;;;;;;;18.9;100.0;101600;;;;
2022/09/05 03:31:20;;;;;;;0.2;0.2;;;;;;;18.9;100.0;101600;;;;
2022/09/05 03:32:10;;;;;;;0.2;0.2;;;;;;;18.9;100.0;101600;;;;
2022/09/05 03:33:07;;;;;;;0.2;0.2;;;;;;;18.9;100.0;101600;;;;
2022/09/05 03:34:10;;;;;;;0.2;0.2;;;;;;;18.8;100.0;101610;;;;
2022/09/05 03:35:08;;;;;;;0.2;0.2;;;;;;;18.8;100.0;101610;;;;
2022/09/05 03:36:10;;;;;;;0.2;0.2;;;;;;;18.8;100.0;101610;;;;
2022/09/05 03:37:10;;;;;;;0.2;0.2;;;;;;;18.8;100.0;101610;;;;
2022/09/05 03:38:10;;;;;;;0.2;0.2;;;;;;;18.8;100.0;101610;;;;
2022/09/05 03:39:10;;;;;;;0.2;0.2;;;;;;;18.8;100.0;101610;;;;
2022/09/05 03:40:13;;;;;;;0.2;0.2;;;;;;;18.7;100.0;101610;;;;
2022/09/05 03:41:01;;;;;;;0.2;0.2;;;;;;;18.7;100.0;101610;;;;
2022/09/05 03:42:15;;;;;;;0.2;0.2;;;;;;;18.8;100.0;101610;;;;
2022/09/05 03:43:10;;;;;;;0.2;0.2;;;;;;;18.8;100.0;101610;;;;
2022/09/05 03:44:08;;;;;;;0.2;0.2;;;;;;;18.8;100.0;101610;;;;
2022/09/05 03:45:10;;;;;;;0.2;0.2;;;;;;;18.8;100.0;101610;;;;
2022/09/05 03:46:10;;;;;;;0.2;0.2;;;;;;;18.8;100.0;101620;;;;
2022/09/05 03:47:10;;;;;;;0.2;0.2;;;;;;;18.8;100.0;101620;;;;
2022/09/05 03:48:13;;;;;;;0.2;0.2;;;;;;;18.5;100.0;101620;;;;
2022/09/05 03:49:17;;;;;;;0.5;0.5;;;;;;;18.5;100.0;101620;;;;
2022/09/05 03:50:20;;;;;;;0.5;0.5;;;;;;;18.6;100.0;101610;;;;
2022/09/05 03:51:20;;;;;;;0.5;0.5;;;;;;;18.6;100.0;101610;;;;
2022/09/05 03:52:11;;;;;;;0.5;0.5;;;;;;;18.6;100.0;101610;;;;
2022/09/05 03:53:11;;;;;;;0.5;0.5;;;;;;;18.6;100.0;101610;;;;
2022/09/05 03:54:20;;;;;;;0.5;0.5;;;;;;;18.6;100.0;101610;;;;
2022/09/05 03:55:20;;;;;;;0.5;0.5;;;;;;;18.6;100.0;101610;;;;
2022/09/05 03:56:20;;;;;;;0.5;0.5;;;;;;;18.5;100.0;101610;;;;
2022/09/05 03:57:20;;;;;;;0.5;0.5;;;;;;;18.5;100.0;101610;;;;
2022/09/05 03:58:17;;;;;;;0.5;0.5;;;;;;;18.5;100.0;101610;;;;
2022/09/05 03:59:00;;;;;;;0.5;0.5;;;;;;;18.5;100.0;101610;;;;
2022/09/05 04:00:03;;;;;;;0.5;0.5;;;;;;;18.4;100.0;101600;;;;
2022/09/05 04:01:16;;;;;;;0.5;0.5;;;;;;;18.4;100.0;101600;;;;
2022/09/05 04:02:12;;;;;;;0.5;0.5;;;;;;;18.5;100.0;101600;;;;
2022/09/05 04:03:20;;;;;;;0.5;0.5;;;;;;;18.5;100.0;101600;;;;
2022/09/05 04:04:13;;;;;;;0.5;0.5;;;;;;;18.5;100.0;101600;;;;
2022/09/05 04:05:15;;;;;;;0.5;0.5;;;;;;;18.5;100.0;101600;;;;
2022/09/05 04:06:16;;;;;;;0.5;0.5;;;;;;;18.3;100.0;101600;;;;
2022/09/05 04:07:14;;;;;;;0.5;0.5;;;;;;;18.3;100.0;101600;;;;
2022/09/05 04:08:20;;;;;;;0.5;0.5;;;;;;;18.4;100.0;101600;;;;
2022/09/05 04:09:03;;;;;;;0.5;0.5;;;;;;;18.4;100.0;101600;;;;
2022/09/05 04:10:04;;;;;;;0.5;0.5;;;;;;;18.4;100.0;101600;;;;
2022/09/05 04:11:07;;;;;;;0.5;0.5;;;;;;;18.4;100.0;101600;;;;
2022/09/05 04:12:10;;;;;;;0.5;0.5;;;;;;;18.3;100.0;101600;;;;
2022/09/05 04:13:01;;;;;;;0.5;0.5;;;;;;;18.3;100.0;101600;;;;
2022/09/05 04:14:10;;;;;;;0.5;0.5;;;;;;;18.3;100.0;101600;;;;
2022/09/05 04:15:01;;;;;;;0.5;0.5;;;;;;;18.3;100.0;101600;;;;
2022/09/05 04:16:05;;;;;;;0.5;0.5;;;;;;;18.4;100.0;101600;;;;
2022/09/05 04:17:08;;;;;;;0.5;0.5;;;;;;;18.4;100.0;101600;;;;
2022/09/05 04:18:04;;;;;;;0.5;0.5;;;;;;;18.0;100.0;101600;;;;
2022/09/05 04:19:07;;;;;;;0.5;0.5;;;;;;;18.0;100.0;101600;;;;
2022/09/05 04:20:00;;;;;;;0.5;0.5;;;;;;;18.2;100.0;101600;;;;
2022/09/05 04:21:05;;;;;;;0.5;0.5;;;;;;;18.2;100.0;101600;;;;
2022/09/05 04:22:10;;;;;;;0.5;0.5;;;;;;;18.1;100.0;101610;;;;
2022/09/05 04:23:10;;;;;;;0.5;0.5;;;;;;;18.1;100.0;101610;;;;
2022/09/05 04:24:05;;;;;;;0.5;0.5;;;;;;;18.1;100.0;101610;;;;
2022/09/05 04:25:10;;;;;;;0.5;0.5;;;;;;;18.1;100.0;101610;;;;
2022/09/05 04:26:11;;;;;;;0.5;0.5;;;;;;;18.0;100.0;101610;;;;
2022/09/05 04:27:10;;;;;;;0.5;0.5;;;;;;;18.0;100.0;101610;;;;
2022/09/05 04:28:07;;;;;;;0.5;0.5;;;;;;;18.1;100.0;101610;;;;
2022/09/05 04:29:02;;;;;;;0.3;0.3;;;;;;;18.1;100.0;101610;;;;
2022/09/05 04:30:05;;;;;;;0.3;0.3;;;;;;;18.1;100.0;101610;;;;
2022/09/05 04:31:05;;;;;;;0.3;0.3;;;;;;;18.1;100.0;101610;;;;
2022/09/05 04:32:10;;;;;;;0.3;0.3;;;;;;;18.0;100.0;101610;;;;
2022/09/05 04:33:02;;;;;;;0.3;0.3;;;;;;;18.0;100.0;101610;;;;
2022/09/05 04:34:01;;;;;;;0.3;0.3;;;;;;;18.1;100.0;101610;;;;
2022/09/05 04:35:10;;;;;;;0.3;0.3;;;;;;;18.1;100.0;101610;;;;
2022/09/05 04:36:03;;;;;;;0.3;0.3;;;;;;;18.1;100.0;101610;;;;
2022/09/05 04:37:01;;;;;;;0.3;0.3;;;;;;;18.1;100.0;101610;;;;
2022/09/05 04:38:10;;;;;;;0.3;0.3;;;;;;;18.1;100.0;101610;;;;
2022/09/05 04:39:08;;;;;;;0.3;0.3;;;;;;;18.1;100.0;101610;;;;
2022/09/05 04:40:10;;;;;;;0.3;0.3;;;;;;;18.1;100.0;101610;;;;
2022/09/05 04:41:04;;;;;;;0.3;0.3;;;;;;;18.1;100.0;101610;;;;
2022/09/05 04:42:01;;;;;;;0.3;0.3;;;;;;;18.1;100.0;101620;;;;
2022/09/05 04:43:03;;;;;;;0.3;0.3;;;;;;;18.1;100.0;101620;;;;
2022/09/05 04:44:05;;;;;;;0.3;0.3;;;;;;;17.9;100.0;101620;;;;
2022/09/05 04:45:05;;;;;;;0.3;0.3;;;;;;;17.9;100.0;101620;;;;
2022/09/05 04:46:07;;;;;;;0.3;0.3;;;;;;;18.0;100.0;101610;;;;
2022/09/05 04:47:05;;;;;;;0.3;0.3;;;;;;;18.0;100.0;101610;;;;
2022/09/05 04:48:02;;;;;;;0.3;0.3;;;;;;;17.9;100.0;101610;;;;
2022/09/05 04:49:06;;;;;;;0.4;0.4;;;;;;;17.9;100.0;101610;;;;
2022/09/05 04:50:05;;;;;;;0.4;0.4;;;;;;;17.8;100.0;101620;;;;
2022/09/05 04:51:03;;;;;;;0.4;0.4;;;;;;;17.8;100.0;101620;;;;
2022/09/05 04:52:01;;;;;;;0.4;0.4;;;;;;;17.5;100.0;101620;;;;
2022/09/05 04:53:03;;;;;;;0.4;0.4;;;;;;;17.5;100.0;101620;;;;
2022/09/05 04:54:10;;;;;;;0.4;0.4;;;;;;;17.6;100.0;101620;;;;
2022/09/05 04:55:06;;;;;;;0.4;0.4;;;;;;;17.6;100.0;101620;;;;
2022/09/05 04:56:03;;;;;;;0.4;0.4;;;;;;;17.5;100.0;101620;;;;
2022/09/05 04:57:14;;;;;;;0.4;0.4;;;;;;;17.5;100.0;101620;;;;
2022/09/05 04:58:06;;;;;;;0.4;0.4;;;;;;;17.6;100.0;101620;;;;
2022/09/05 04:59:13;;;;;;;0.4;0.4;;;;;;;17.6;100.0;101620;;;;
2022/09/05 05:00:20;;;;;;;0.4;0.4;;;;;;;17.6;100.0;101620;;;;
2022/09/05 05:01:14;;;;;;;0.4;0.4;;;;;;;17.6;100.0;101620;;;;
2022/09/05 05:02:14;;;;;;;0.4;0.4;;;;;;;17.6;100.0;101620;;;;
2022/09/05 05:03:12;;;;;;;0.4;0.4;;;;;;;17.6;100.0;101620;;;;
2022/09/05 05:04:15;;;;;;;0.4;0.4;;;;;;;17.7;100.0;101630;;;;
2022/09/05 05:05:12;;;;;;;0.4;0.4;;;;;;;17.7;100.0;101630;;;;
2022/09/05 05:06:10;;;;;;;0.4;0.4;;;;;;;17.8;100.0;101640;;;;
2022/09/05 05:07:07;;;;;;;0.4;0.4;;;;;;;17.8;100.0;101640;;;;
2022/09/05 05:08:04;;;;;;;0.4;0.4;;;;;;;17.9;100.0;101630;;;;
2022/09/05 05:09:05;;;;;;;1.0;1.0;;;;;;;17.9;100.0;101630;;;;
2022/09/05 05:10:11;;;;;;;1.0;1.0;;;;;;;17.8;100.0;101640;;;;
2022/09/05 05:11:15;;;;;;;1.0;1.0;;;;;;;17.8;100.0;101640;;;;
2022/09/05 05:12:12;;;;;;;1.0;1.0;;;;;;;17.9;100.0;101630;;;;
2022/09/05 05:13:14;;;;;;;1.0;1.0;;;;;;;17.9;100.0;101630;;;;
2022/09/05 05:14:12;;;;;;;1.0;1.0;;;;;;;17.8;100.0;101630;;;;
2022/09/05 05:15:12;;;;;;;1.0;1.0;;;;;;;17.8;100.0;101630;;;;
2022/09/05 05:16:20;;;;;;;1.0;1.0;;;;;;;17.9;100.0;101630;;;;
2022/09/05 05:17:17;;;;;;;1.0;1.0;;;;;;;17.9;100.0;101630;;;;
2022/09/05 05:18:20;;;;;;;1.0;1.0;;;;;;;17.9;100.0;101630;;;;
2022/09/05 05:19:20;;;;;;;1.0;1.0;;;;;;;17.9;100.0;101630;;;;
2022/09/05 05:20:16;;;;;;;1.0;1.0;;;;;;;17.9;100.0;101640;;;;
2022/09/05 05:21:00;;;;;;;1.0;1.0;;;;;;;17.9;100.0;101640;;;;
2022/09/05 05:22:01;;;;;;;1.0;1.0;;;;;;;17.9;100.0;101630;;;;
2022/09/05 05:23:08;;;;;;;1.0;1.0;;;;;;;17.9;100.0;101630;;;;
2022/09/05 05:24:10;;;;;;;1.0;1.0;;;;;;;17.8;100.0;101630;;;;
2022/09/05 05:25:00;;;;;;;1.0;1.0;;;;;;;17.8;100.0;101630;;;;
2022/09/05 05:26:01;;;;;;;1.0;1.0;;;;;;;17.7;100.0;101640;;;;
2022/09/05 05:27:09;;;;;;;1.0;1.0;;;;;;;17.7;100.0;101640;;;;
2022/09/05 05:28:20;;;;;;;1.0;1.0;;;;;;;17.8;100.0;101640;;;;
2022/09/05 05:29:07;;;;;;;0.6;0.6;;;;;;;17.8;100.0;101640;;;;
2022/09/05 05:30:00;;;;;;;0.6;0.6;;;;;;;17.8;100.0;101640;;;;
2022/09/05 05:31:09;;;;;;;0.6;0.6;;;;;;;17.8;100.0;101640;;;;
2022/09/05 05:32:01;;;;;;;0.6;0.6;;;;;;;17.7;100.0;101640;;;;
2022/09/05 05:33:07;;;;;;;0.6;0.6;;;;;;;17.7;100.0;101640;;;;
2022/09/05 05:34:08;;;;;;;0.6;0.6;;;;;;;17.7;100.0;101640;;;;
2022/09/05 05:35:03;;;;;;;0.6;0.6;;;;;;;17.7;100.0;101640;;;;
2022/09/05 05:36:01;;;;;;;0.6;0.6;;;;;;;17.7;100.0;101640;;;;
2022/09/05 05:37:05;;;;;;;0.6;0.6;;;;;;;17.7;100.0;101640;;;;
2022/09/05 05:38:09;;;;;;;0.6;0.6;;;;;;;17.7;100.0;101640;;;;
2022/09/05 05:39:00;;;;;;;0.6;0.6;;;;;;;17.7;100.0;101640;;;;
2022/09/05 05:40:10;;;;;;;0.6;0.6;;;;;;;17.6;100.0;101630;;;;
2022/09/05 05:41:05;;;;;;;0.6;0.6;;;;;;;17.6;100.0;101630;;;;
2022/09/05 05:42:11;;;;;;;0.6;0.6;;;;;;;17.8;100.0;101630;;;;
2022/09/05 05:43:10;;;;;;;0.6;0.6;;;;;;;17.8;100.0;101630;;;;
2022/09/05 05:44:08;;;;;;;0.6;0.6;;;;;;;17.8;100.0;101630;;;;
2022/09/05 05:45:00;;;;;;;0.6;0.6;;;;;;;17.8;100.0;101630;;;;
2022/09/05 05:46:00;;;;;;;0.6;0.6;;;;;;;17.9;100.0;101630;;;;
2022/09/05 05:47:02;;;;;;;0.6;0.6;;;;;;;17.9;100.0;101630;;;;
2022/09/05 05:48:04;;;;;;;0.6;0.6;;;;;;;17.9;100.0;101630;;;;
2022/09/05 05:49:09;;;;;;;0.4;0.4;;;;;;;17.9;100.0;101630;;;;
2022/09/05 05:50:02;;;;;;;0.4;0.4;;;;;;;18.0;100.0;101630;;;;
2022/09/05 05:51:05;;;;;;;0.4;0.4;;;;;;;18.0;100.0;101630;;;;
2022/09/05 05:54:09;;;;;;;0.4;0.4;;;;;;;18.0;100.0;101640;;;;
2022/09/05 05:55:18;;;;;;;0.4;0.4;;;;;;;18.0;100.0;101640;;;;
2022/09/05 05:56:03;;;;;;;0.4;0.4;;;;;;;18.0;100.0;101650;;;;
2022/09/05 05:57:15;;;;;;;0.4;0.4;;;;;;;18.0;100.0;101650;;;;
2022/09/05 05:58:06;;;;;;;0.4;0.4;;;;;;;18.0;100.0;101650;;;;
2022/09/05 05:59:10;;;;;;;0.4;0.4;;;;;;;18.0;100.0;101650;;;;
2022/09/05 06:00:07;;;;;;;0.4;0.4;;;;;;;18.1;100.0;101650;;;;
2022/09/05 06:01:20;;;;;;;0.4;0.4;;;;;;;18.1;100.0;101650;;;;
2022/09/05 06:02:09;;;;;;;0.4;0.4;;;;;;;18.0;100.0;101650;;;;
2022/09/05 06:03:20;;;;;;;0.4;0.4;;;;;;;18.0;100.0;101650;;;;
2022/09/05 06:04:10;;;;;;;0.4;0.4;;;;;;;18.1;100.0;101650;;;;
2022/09/05 06:05:10;;;;;;;0.4;0.4;;;;;;;18.1;100.0;101650;;;;
2022/09/05 06:06:03;;;;;;;0.4;0.4;;;;;;;18.1;100.0;101650;;;;
2022/09/05 06:07:01;;;;;;;0.4;0.4;;;;;;;18.1;100.0;101650;;;;
2022/09/05 06:08:10;;;;;;;0.4;0.4;;;;;;;18.2;100.0;101650;;;;
2022/09/05 06:09:10;;;;;;;0.7;0.7;;;;;;;18.2;100.0;101650;;;;
2022/09/05 06:10:20;;;;;;;0.7;0.7;;;;;;;18.2;100.0;101650;;;;
2022/09/05 06:11:15;;;;;;;0.7;0.7;;;;;;;18.2;100.0;101650;;;;
2022/09/05 06:12:13;;;;;;;0.7;0.7;;;;;;;18.2;100.0;101660;;;;
2022/09/05 06:13:20;;;;;;;0.7;0.7;;;;;;;18.2;100.0;101660;;;;
2022/09/05 06:14:20;;;;;;;0.7;0.7;;;;;;;18.4;100.0;101660;;;;
2022/09/05 06:15:14;;;;;;;0.7;0.7;;;;;;;18.4;100.0;101660;;;;
2022/09/05 06:16:06;;;;;;;0.7;0.7;;;;;;;18.5;100.0;101660;;;;
2022/09/05 06:17:03;;;;;;;0.7;0.7;;;;;;;18.5;100.0;101660;;;;
2022/09/05 06:18:10;;;;;;;0.7;0.7;;;;;;;18.4;100.0;101660;;;;
2022/09/05 06:19:09;;;;;;;0.7;0.7;;;;;;;18.4;100.0;101660;;;;
2022/09/05 06:20:19;;;;;;;0.7;0.7;;;;;;;18.5;100.0;101660;;;;
2022/09/05 06:21:20;;;;;;;0.7;0.7;;;;;;;18.5;100.0;101660;;;;
2022/09/05 06:22:13;;;;;;;0.7;0.7;;;;;;;18.4;100.0;101660;;;;
2022/09/05 06:23:20;;;;;;;0.7;0.7;;;;;;;18.4;100.0;101660;;;;
2022/09/05 06:25:10;;;;;;;0.7;0.7;;;;;;;18.5;100.0;101660;;;;
2022/09/05 06:26:00;;;;;;;0.7;0.7;;;;;;;18.6;100.0;101660;;;;